Time;durP1;ratioP1;P1;durP2;ratioP2;P2;SDS_P1;SDS_P2;PMS_P1;PMS_P2;Temp;Humidity;BMP_temperature;BMP_pressure;BME280_temperature;BME280_humidity;BME280_pressure;Samples;Min_cycle;Max_cycle;Signal;HPM_P1;HPM_P2
2023/03/20 00:01:15;;;;;;;8.30;6.80;;;;;;;;;;5016631;28;20026;-77
2023/03/20 00:03:41;;;;;;;8.93;6.55;;;;;;;;;;5021586;28;20187;-77
2023/03/20 00:06:19;;;;;;;10.15;6.93;;;;;;;;;;5018830;28;20025;-77
2023/03/20 00:08:47;;;;;;;10.32;6.47;;;;;;;;;;5014579;28;20445;-77
2023/03/20 00:11:29;;;;;;;9.15;7.18;;;;;;;;;;5018250;28;20493;-77
2023/03/20 00:14:01;;;;;;;10.65;6.35;;;;;;;;;;5020351;28;20026;-77
2023/03/20 00:16:30;;;;;;;11.73;7.10;;;;;;;;;;5014318;28;20029;-77
2023/03/20 00:18:57;;;;;;;8.23;7.25;;;;;;;;;;5017151;28;20028;-77
2023/03/20 00:21:23;;;;;;;7.53;6.50;;;;;;;;;;5013265;28;20065;-77
2023/03/20 00:23:49;;;;;;;8.52;6.70;;;;;;;;;;5020827;28;20021;-77
2023/03/20 00:26:18;;;;;;;9.55;7.05;;;;;;;;;;5016627;28;20167;-77
2023/03/20 00:28:48;;;;;;;9.02;7.88;;;;;;;;;;5003800;28;20524;-78
2023/03/20 00:31:21;;;;;;;8.90;7.40;;;;;;;;;;5017448;28;20021;-76
2023/03/20 00:33:48;;;;;;;9.00;6.93;;;;;;;;;;5019355;28;20052;-77
2023/03/20 00:36:14;;;;;;;11.57;6.90;;;;;;;;;;5012244;28;20040;-77
2023/03/20 00:38:40;;;;;;;8.07;6.82;;;;;;;;;;5016993;28;20040;-76
2023/03/20 00:41:24;;;;;;;7.82;6.88;;;;;;;;;;5014827;28;20053;-77
2023/03/20 00:43:53;;;;;;;11.02;7.50;;;;;;;;;;5019375;28;20108;-77
2023/03/20 00:46:19;;;;;;;11.85;7.30;;;;;;;;;;5013890;28;20022;-77
2023/03/20 00:48:46;;;;;;;8.93;6.93;;;;;;;;;;4996540;28;20831;-77
2023/03/20 00:51:12;;;;;;;8.60;7.32;;;;;;;;;;5018573;28;20079;-77
2023/03/20 00:53:38;;;;;;;10.13;7.75;;;;;;;;;;5018468;28;20102;-77
2023/03/20 00:56:06;;;;;;;9.57;6.95;;;;;;;;;;5015073;28;20037;-77
2023/03/20 00:58:32;;;;;;;12.57;7.78;;;;;;;;;;5016590;28;20083;-77
2023/03/20 01:00:58;;;;;;;13.63;7.80;;;;;;;;;;5013021;28;20418;-77
2023/03/20 01:03:28;;;;;;;10.40;7.82;;;;;;;;;;5019038;28;20033;-77
2023/03/20 01:05:56;;;;;;;8.63;7.70;;;;;;;;;;4998677;28;20654;-77
2023/03/20 01:08:25;;;;;;;10.70;8.55;;;;;;;;;;5002223;28;20065;-77
2023/03/20 01:10:55;;;;;;;11.65;7.45;;;;;;;;;;5018924;28;20785;-77
2023/03/20 01:13:26;;;;;;;8.98;6.68;;;;;;;;;;5020822;28;20501;-77
2023/03/20 01:15:53;;;;;;;8.95;7.88;;;;;;;;;;5014069;28;20033;-77
2023/03/20 01:18:20;;;;;;;12.45;8.00;;;;;;;;;;5019549;28;20109;-77
2023/03/20 01:20:47;;;;;;;9.48;7.63;;;;;;;;;;5019978;28;20029;-77
2023/03/20 01:23:13;;;;;;;9.63;7.70;;;;;;;;;;4999010;28;20041;-76
2023/03/20 01:25:39;;;;;;;12.25;8.20;;;;;;;;;;5017143;28;20053;-77
2023/03/20 01:28:21;;;;;;;12.27;7.97;;;;;;;;;;5013394;28;20125;-77
2023/03/20 01:30:47;;;;;;;10.27;7.38;;;;;;;;;;5021424;28;20104;-77
2023/03/20 01:33:17;;;;;;;10.55;7.65;;;;;;;;;;5022747;28;20057;-77
2023/03/20 01:35:45;;;;;;;10.15;7.55;;;;;;;;;;5000797;28;20029;-77
2023/03/20 01:38:23;;;;;;;8.57;7.43;;;;;;;;;;4995763;28;20036;-77
2023/03/20 01:41:03;;;;;;;9.32;7.30;;;;;;;;;;5016308;28;20149;-77
2023/03/20 01:43:29;;;;;;;9.40;7.45;;;;;;;;;;5014669;28;20105;-77
2023/03/20 01:45:59;;;;;;;9.90;7.32;;;;;;;;;;5014339;28;20029;-77
2023/03/20 01:48:26;;;;;;;9.65;7.53;;;;;;;;;;5018885;28;20053;-77
2023/03/20 01:50:53;;;;;;;10.02;7.65;;;;;;;;;;5015586;28;20025;-77
2023/03/20 01:53:27;;;;;;;9.55;7.13;;;;;;;;;;5010213;28;20026;-77
2023/03/20 01:55:55;;;;;;;8.88;7.00;;;;;;;;;;4997878;28;20033;-76
2023/03/20 01:58:25;;;;;;;9.57;6.90;;;;;;;;;;5016176;28;20056;-77
2023/03/20 02:00:52;;;;;;;9.35;6.75;;;;;;;;;;5019384;28;20212;-76
2023/03/20 02:03:19;;;;;;;8.23;6.40;;;;;;;;;;5014035;28;20854;-76
2023/03/20 02:05:45;;;;;;;9.30;7.50;;;;;;;;;;5014848;28;20037;-76
2023/03/20 02:08:18;;;;;;;10.18;7.60;;;;;;;;;;5014788;28;20040;-76
2023/03/20 02:10:45;;;;;;;12.88;9.25;;;;;;;;;;5019803;28;20028;-76
2023/03/20 02:13:13;;;;;;;11.65;8.38;;;;;;;;;;5019820;28;20033;-77
2023/03/20 02:15:59;;;;;;;11.75;7.90;;;;;;;;;;5020743;28;20028;-77
2023/03/20 02:18:25;;;;;;;11.05;8.40;;;;;;;;;;5021122;28;20124;-77
2023/03/20 02:20:54;;;;;;;14.18;8.23;;;;;;;;;;5022789;28;20022;-78
2023/03/20 02:23:21;;;;;;;8.48;7.40;;;;;;;;;;5017308;28;20052;-77
2023/03/20 02:25:59;;;;;;;10.27;7.40;;;;;;;;;;5018791;28;20018;-77
2023/03/20 02:28:39;;;;;;;13.70;7.53;;;;;;;;;;5020476;28;20052;-77
2023/03/20 02:31:24;;;;;;;9.52;7.70;;;;;;;;;;5019674;28;20108;-77
2023/03/20 02:33:53;;;;;;;10.95;7.93;;;;;;;;;;5020693;28;20116;-77
2023/03/20 02:36:38;;;;;;;8.68;7.03;;;;;;;;;;4998337;28;20034;-77
2023/03/20 02:39:13;;;;;;;8.48;7.13;;;;;;;;;;5004776;28;20426;-77
2023/03/20 02:42:18;;;;;;;9.35;7.10;;;;;;;;;;5017451;28;20160;-77
2023/03/20 02:45:13;;;;;;;8.20;6.72;;;;;;;;;;4927474;29;20330;-77
2023/03/20 02:47:53;;;;;;;10.73;7.30;;;;;;;;;;4909950;29;20147;-77
2023/03/20 02:50:38;;;;;;;8.43;6.82;;;;;;;;;;4998758;28;20152;-77
2023/03/20 02:53:05;;;;;;;7.63;6.72;;;;;;;;;;5015376;28;20071;-77
2023/03/20 02:56:01;;;;;;;11.23;6.60;;;;;;;;;;5014539;28;20479;-77
2023/03/20 02:58:37;;;;;;;8.73;6.57;;;;;;;;;;5000129;28;20076;-76
2023/03/20 03:01:12;;;;;;;10.45;6.80;;;;;;;;;;5023561;28;20108;-77
2023/03/20 03:03:41;;;;;;;10.77;8.23;;;;;;;;;;5014448;28;20470;-77
2023/03/20 03:06:26;;;;;;;11.15;7.03;;;;;;;;;;5016323;28;20112;-77
2023/03/20 03:09:01;;;;;;;10.07;7.15;;;;;;;;;;5020023;28;20041;-77
2023/03/20 03:11:27;;;;;;;14.13;7.15;;;;;;;;;;5014992;28;20037;-77
2023/03/20 03:13:55;;;;;;;10.75;6.38;;;;;;;;;;5017554;28;20112;-77
2023/03/20 03:16:26;;;;;;;10.65;7.15;;;;;;;;;;5019176;28;20034;-77
2023/03/20 03:19:00;;;;;;;8.77;6.72;;;;;;;;;;5020874;28;20033;-77
2023/03/20 03:21:28;;;;;;;8.93;6.80;;;;;;;;;;5019489;28;20032;-77
2023/03/20 03:23:55;;;;;;;10.05;6.53;;;;;;;;;;5001536;28;20156;-77
2023/03/20 03:26:24;;;;;;;7.90;6.60;;;;;;;;;;5020758;28;20017;-77
2023/03/20 03:28:52;;;;;;;11.82;6.85;;;;;;;;;;5022062;28;20217;-77
2023/03/20 03:31:18;;;;;;;9.82;6.85;;;;;;;;;;5016639;28;20026;-77
2023/03/20 03:33:46;;;;;;;19.38;8.13;;;;;;;;;;5015351;28;20109;-75
2023/03/20 03:36:26;;;;;;;9.52;6.82;;;;;;;;;;5017568;28;20494;-76
2023/03/20 03:39:00;;;;;;;10.48;6.53;;;;;;;;;;5018186;28;20096;-77
2023/03/20 03:41:26;;;;;;;9.63;6.88;;;;;;;;;;5017730;28;20059;-76
2023/03/20 03:44:11;;;;;;;8.55;6.60;;;;;;;;;;5017191;28;20450;-77
2023/03/20 03:46:40;;;;;;;6.85;6.05;;;;;;;;;;5017260;28;20026;-76
2023/03/20 03:49:08;;;;;;;8.85;6.55;;;;;;;;;;5021446;28;20485;-76
2023/03/20 03:51:35;;;;;;;9.15;6.85;;;;;;;;;;5018497;28;20483;-77
2023/03/20 03:54:05;;;;;;;7.28;6.38;;;;;;;;;;5018015;28;20034;-77
2023/03/20 03:56:32;;;;;;;10.25;6.80;;;;;;;;;;5015498;28;20053;-76
2023/03/20 03:59:03;;;;;;;9.82;6.30;;;;;;;;;;5023341;28;20104;-76
2023/03/20 04:01:34;;;;;;;8.63;6.43;;;;;;;;;;5018946;28;20462;-77
2023/03/20 04:04:01;;;;;;;7.97;6.53;;;;;;;;;;5020140;28;20128;-77
2023/03/20 04:06:27;;;;;;;11.32;6.63;;;;;;;;;;5011807;28;20124;-76
2023/03/20 04:08:53;;;;;;;11.02;6.72;;;;;;;;;;5017172;28;20048;-77
2023/03/20 04:11:23;;;;;;;9.73;6.88;;;;;;;;;;5013007;28;20113;-76
2023/03/20 04:13:50;;;;;;;8.75;6.90;;;;;;;;;;4995249;28;20056;-76
2023/03/20 04:16:16;;;;;;;9.20;6.82;;;;;;;;;;5011495;28;20044;-76
2023/03/20 04:18:44;;;;;;;15.45;7.93;;;;;;;;;;5014582;28;20025;-76
2023/03/20 04:21:10;;;;;;;10.88;7.68;;;;;;;;;;5011426;28;20032;-76
2023/03/20 04:23:37;;;;;;;8.88;7.60;;;;;;;;;;5009460;28;20030;-76
2023/03/20 04:26:04;;;;;;;10.38;7.25;;;;;;;;;;4991700;28;20461;-76
2023/03/20 04:28:30;;;;;;;8.13;6.47;;;;;;;;;;5015234;28;20726;-76
2023/03/20 04:31:00;;;;;;;8.40;6.63;;;;;;;;;;5011634;28;20049;-76
2023/03/20 04:33:27;;;;;;;7.93;6.63;;;;;;;;;;5011112;28;20091;-76
2023/03/20 04:35:53;;;;;;;10.55;7.13;;;;;;;;;;5008622;28;20026;-77
2023/03/20 04:38:20;;;;;;;11.75;6.65;;;;;;;;;;5012494;28;20348;-77
2023/03/20 04:40:46;;;;;;;9.63;6.72;;;;;;;;;;5009386;28;20046;-77
2023/03/20 04:43:13;;;;;;;9.48;6.70;;;;;;;;;;5009096;28;20576;-77
2023/03/20 04:45:40;;;;;;;11.80;6.60;;;;;;;;;;4995982;28;20021;-76
2023/03/20 04:48:06;;;;;;;12.60;7.30;;;;;;;;;;5018105;28;20076;-77
2023/03/20 04:50:32;;;;;;;11.55;5.63;;;;;;;;;;5011642;28;20029;-77
2023/03/20 04:52:59;;;;;;;9.85;6.47;;;;;;;;;;5015807;28;20597;-77
2023/03/20 04:55:25;;;;;;;11.13;6.30;;;;;;;;;;5015064;28;20547;-77
2023/03/20 04:57:51;;;;;;;8.25;5.50;;;;;;;;;;5015724;28;20049;-77
2023/03/20 05:00:18;;;;;;;13.32;5.72;;;;;;;;;;5016016;28;20026;-77
2023/03/20 05:02:45;;;;;;;14.38;5.95;;;;;;;;;;5012258;28;20217;-77
2023/03/20 05:05:11;;;;;;;12.02;5.72;;;;;;;;;;5014956;28;20036;-77
2023/03/20 05:07:40;;;;;;;11.43;5.97;;;;;;;;;;5015973;28;20045;-77
2023/03/20 05:10:07;;;;;;;10.18;6.50;;;;;;;;;;5013675;28;20052;-77
2023/03/20 05:12:33;;;;;;;7.25;6.00;;;;;;;;;;5013860;28;20068;-77
2023/03/20 05:14:59;;;;;;;8.98;6.25;;;;;;;;;;5012302;28;20044;-77
2023/03/20 05:17:25;;;;;;;8.70;6.57;;;;;;;;;;5017717;28;20845;-77
2023/03/20 05:19:52;;;;;;;13.40;6.68;;;;;;;;;;5010700;28;20030;-77
2023/03/20 05:22:18;;;;;;;9.43;6.25;;;;;;;;;;5016225;28;20053;-77
2023/03/20 05:24:45;;;;;;;6.75;5.38;;;;;;;;;;4994225;28;20039;-78
2023/03/20 05:27:11;;;;;;;11.13;6.70;;;;;;;;;;5018728;28;20079;-77
2023/03/20 05:29:40;;;;;;;10.90;6.65;;;;;;;;;;5014035;28;20075;-77
2023/03/20 05:32:06;;;;;;;7.30;5.80;;;;;;;;;;5016990;28;20029;-77
2023/03/20 05:34:32;;;;;;;12.32;7.68;;;;;;;;;;5009475;28;20024;-78
2023/03/20 05:36:59;;;;;;;14.27;7.15;;;;;;;;;;5014726;28;20604;-77
2023/03/20 05:39:25;;;;;;;10.20;6.30;;;;;;;;;;5016077;28;20041;-76
2023/03/20 05:41:54;;;;;;;8.65;6.85;;;;;;;;;;5010727;28;20112;-77
2023/03/20 05:44:20;;;;;;;9.35;6.55;;;;;;;;;;5017220;28;20029;-77
2023/03/20 05:46:49;;;;;;;8.48;6.13;;;;;;;;;;5017456;28;20114;-77
2023/03/20 05:49:15;;;;;;;7.93;6.43;;;;;;;;;;5015838;28;20038;-77
2023/03/20 05:51:41;;;;;;;10.85;7.22;;;;;;;;;;5011720;28;20028;-77
2023/03/20 05:54:08;;;;;;;9.93;6.68;;;;;;;;;;5016047;28;20036;-77
2023/03/20 05:56:34;;;;;;;9.93;7.45;;;;;;;;;;5015618;28;20559;-77
2023/03/20 05:59:01;;;;;;;14.35;7.88;;;;;;;;;;5012723;28;20025;-77
2023/03/20 06:01:30;;;;;;;10.43;6.75;;;;;;;;;;5014387;28;20030;-77
2023/03/20 06:03:57;;;;;;;13.05;6.72;;;;;;;;;;5011255;28;20588;-77
2023/03/20 06:06:23;;;;;;;9.40;6.38;;;;;;;;;;5014848;28;20037;-77
2023/03/20 06:08:49;;;;;;;11.32;6.53;;;;;;;;;;5013989;28;20044;-77
2023/03/20 06:11:26;;;;;;;10.45;6.70;;;;;;;;;;5011915;28;20028;-77
2023/03/20 06:13:56;;;;;;;10.43;6.72;;;;;;;;;;5014657;28;20029;-77
2023/03/20 06:16:23;;;;;;;12.32;6.90;;;;;;;;;;5014196;28;20021;-77
2023/03/20 06:18:49;;;;;;;10.38;6.90;;;;;;;;;;5013069;28;20112;-77
2023/03/20 06:21:15;;;;;;;10.25;7.45;;;;;;;;;;5013160;28;20055;-77
2023/03/20 06:23:42;;;;;;;11.15;7.43;;;;;;;;;;5012446;28;20025;-77
2023/03/20 06:26:11;;;;;;;13.88;9.98;;;;;;;;;;5013978;28;20457;-77
2023/03/20 06:28:40;;;;;;;17.90;10.60;;;;;;;;;;5013289;28;20121;-77
2023/03/20 06:31:08;;;;;;;23.52;13.48;;;;;;;;;;5011861;28;20093;-77
2023/03/20 06:33:35;;;;;;;19.70;13.13;;;;;;;;;;5008871;28;20108;-77
2023/03/20 06:36:02;;;;;;;19.55;13.10;;;;;;;;;;5012444;28;20451;-77
2023/03/20 06:38:28;;;;;;;20.42;13.60;;;;;;;;;;5012974;28;20656;-77
2023/03/20 06:40:54;;;;;;;24.25;16.15;;;;;;;;;;5008870;28;20045;-77
2023/03/20 06:43:20;;;;;;;25.30;15.63;;;;;;;;;;5011721;28;20036;-77
2023/03/20 06:45:47;;;;;;;17.85;13.18;;;;;;;;;;5014297;28;20591;-77
2023/03/20 06:48:15;;;;;;;19.85;13.52;;;;;;;;;;5015443;28;20045;-77
2023/03/20 06:50:41;;;;;;;76.43;41.78;;;;;;;;;;5010059;28;20705;-77
2023/03/20 06:53:07;;;;;;;117.45;60.17;;;;;;;;;;4995299;28;20026;-77
2023/03/20 06:55:33;;;;;;;53.22;33.83;;;;;;;;;;5016452;28;20120;-77
2023/03/20 06:58:00;;;;;;;64.22;37.63;;;;;;;;;;5010141;28;20116;-77
2023/03/20 07:00:26;;;;;;;94.20;49.38;;;;;;;;;;5007282;28;20773;-78
2023/03/20 07:02:53;;;;;;;49.92;27.00;;;;;;;;;;5012296;28;20035;-77
2023/03/20 07:05:19;;;;;;;30.80;16.90;;;;;;;;;;5015311;28;20509;-77
2023/03/20 07:07:45;;;;;;;21.35;14.43;;;;;;;;;;5009920;28;20037;-77
2023/03/20 07:10:12;;;;;;;26.27;14.80;;;;;;;;;;5013328;28;20129;-79
2023/03/20 07:12:38;;;;;;;23.55;13.98;;;;;;;;;;5011334;28;20410;-77
2023/03/20 07:15:05;;;;;;;101.35;49.08;;;;;;;;;;5014440;28;20030;-77
2023/03/20 07:17:31;;;;;;;263.17;115.93;;;;;;;;;;5012501;28;20068;-77
2023/03/20 07:19:57;;;;;;;348.38;149.25;;;;;;;;;;5011752;28;20053;-77
2023/03/20 07:22:25;;;;;;;161.95;72.13;;;;;;;;;;5013743;28;20025;-76
2023/03/20 07:24:54;;;;;;;257.77;127.78;;;;;;;;;;5014217;28;20486;-77
2023/03/20 07:27:21;;;;;;;435.63;205.40;;;;;;;;;;5013927;28;20022;-77
2023/03/20 07:29:50;;;;;;;299.58;144.63;;;;;;;;;;5008096;28;20026;-77
2023/03/20 07:32:16;;;;;;;191.23;100.68;;;;;;;;;;5010910;28;20021;-77
2023/03/20 07:34:42;;;;;;;67.45;43.03;;;;;;;;;;5015388;28;20108;-77
2023/03/20 07:37:09;;;;;;;48.22;29.85;;;;;;;;;;5006483;28;20580;-77
2023/03/20 07:39:35;;;;;;;23.92;17.02;;;;;;;;;;5011300;28;20357;-74
2023/03/20 07:42:01;;;;;;;20.35;13.48;;;;;;;;;;5008919;28;20057;-76
2023/03/20 07:44:28;;;;;;;14.43;12.30;;;;;;;;;;5016880;28;20082;-75
2023/03/20 07:46:54;;;;;;;21.35;13.30;;;;;;;;;;5005830;28;20108;-76
2023/03/20 07:49:20;;;;;;;16.77;14.13;;;;;;;;;;5011253;28;20045;-75
2023/03/20 07:51:47;;;;;;;13.43;11.73;;;;;;;;;;5013303;28;20029;-75
2023/03/20 07:54:14;;;;;;;18.73;13.93;;;;;;;;;;4994633;28;20765;-75
2023/03/20 07:56:40;;;;;;;14.27;12.48;;;;;;;;;;5013112;28;20351;-75
2023/03/20 07:59:06;;;;;;;17.25;13.57;;;;;;;;;;5010798;28;20688;-76
2023/03/20 08:01:33;;;;;;;18.95;12.80;;;;;;;;;;5010488;28;20026;-75
2023/03/20 08:03:59;;;;;;;18.35;14.07;;;;;;;;;;5012246;28;20033;-75
2023/03/20 08:06:25;;;;;;;16.80;13.05;;;;;;;;;;5009511;28;20049;-76
2023/03/20 08:08:52;;;;;;;16.20;13.73;;;;;;;;;;5011377;28;20033;-75
2023/03/20 08:11:19;;;;;;;14.82;11.80;;;;;;;;;;5011327;28;20809;-76
2023/03/20 08:13:51;;;;;;;16.88;13.55;;;;;;;;;;5016077;28;20359;-76
2023/03/20 08:16:17;;;;;;;15.30;13.52;;;;;;;;;;5003194;28;20029;-75
2023/03/20 08:18:44;;;;;;;18.15;13.90;;;;;;;;;;5009464;28;20440;-76
2023/03/20 08:21:10;;;;;;;17.13;13.90;;;;;;;;;;5014506;28;20363;-75
2023/03/20 08:23:36;;;;;;;19.75;14.55;;;;;;;;;;5017922;28;20025;-75
2023/03/20 08:26:05;;;;;;;20.45;15.48;;;;;;;;;;5010738;28;20070;-75
2023/03/20 08:28:32;;;;;;;29.70;18.40;;;;;;;;;;5014964;28;20118;-76
2023/03/20 08:31:01;;;;;;;21.92;16.33;;;;;;;;;;5015796;28;20106;-75
2023/03/20 08:33:27;;;;;;;28.73;18.35;;;;;;;;;;5013270;28;20032;-75
2023/03/20 08:35:57;;;;;;;24.05;18.25;;;;;;;;;;5012512;28;20516;-75
2023/03/20 08:38:24;;;;;;;23.25;16.05;;;;;;;;;;5014851;28;20026;-75
2023/03/20 08:40:50;;;;;;;26.08;18.23;;;;;;;;;;5013298;28;20049;-75
2023/03/20 08:43:17;;;;;;;22.15;16.55;;;;;;;;;;5013371;28;20622;-77
2023/03/20 08:45:44;;;;;;;26.67;17.25;;;;;;;;;;5017900;28;20060;-77
2023/03/20 08:48:10;;;;;;;23.48;16.80;;;;;;;;;;5012781;28;20556;-75
2023/03/20 08:50:37;;;;;;;23.02;18.42;;;;;;;;;;5015059;28;20767;-76
2023/03/20 08:53:06;;;;;;;28.27;18.70;;;;;;;;;;5015522;28;20487;-79
2023/03/20 08:55:32;;;;;;;25.17;18.58;;;;;;;;;;5011859;28;20037;-77
2023/03/20 08:57:58;;;;;;;28.92;21.27;;;;;;;;;;5010967;28;20104;-75
2023/03/20 09:00:26;;;;;;;35.13;24.58;;;;;;;;;;5016414;28;20114;-77
2023/03/20 09:02:52;;;;;;;33.90;26.52;;;;;;;;;;5015413;28;20116;-78
2023/03/20 09:05:18;;;;;;;36.03;28.00;;;;;;;;;;5017798;28;20949;-77
2023/03/20 09:07:45;;;;;;;38.22;28.65;;;;;;;;;;5016412;28;20549;-77
2023/03/20 09:10:11;;;;;;;35.90;28.33;;;;;;;;;;5002799;28;20092;-76
2023/03/20 09:12:38;;;;;;;43.17;29.35;;;;;;;;;;5016658;28;20026;-76
2023/03/20 09:15:05;;;;;;;36.30;27.85;;;;;;;;;;5016468;28;20030;-76
2023/03/20 09:17:31;;;;;;;33.60;24.80;;;;;;;;;;5010203;28;20057;-78
2023/03/20 09:19:58;;;;;;;31.13;23.90;;;;;;;;;;5015133;28;20059;-77
2023/03/20 09:22:24;;;;;;;31.08;23.40;;;;;;;;;;5013754;28;20057;-77
2023/03/20 09:24:50;;;;;;;36.45;25.02;;;;;;;;;;5012956;28;20021;-77
2023/03/20 09:27:16;;;;;;;28.60;21.08;;;;;;;;;;5012338;28;20144;-76
2023/03/20 09:29:43;;;;;;;33.83;25.10;;;;;;;;;;5017701;28;20038;-77
2023/03/20 09:32:13;;;;;;;32.72;25.17;;;;;;;;;;5017014;28;20119;-76
2023/03/20 09:34:39;;;;;;;30.25;23.08;;;;;;;;;;5014167;28;20872;-78
2023/03/20 09:37:07;;;;;;;26.13;20.65;;;;;;;;;;5014619;28;20478;-79
2023/03/20 09:39:34;;;;;;;32.40;23.80;;;;;;;;;;5015310;28;20060;-77
2023/03/20 09:42:07;;;;;;;28.05;21.17;;;;;;;;;;5018111;28;20045;-79
2023/03/20 09:44:44;;;;;;;27.08;21.80;;;;;;;;;;5016865;28;20021;-78
2023/03/20 09:47:20;;;;;;;29.75;21.30;;;;;;;;;;5016859;28;20291;-77
2023/03/20 09:50:04;;;;;;;28.30;21.60;;;;;;;;;;5013237;28;20079;-78
2023/03/20 09:52:41;;;;;;;34.65;24.25;;;;;;;;;;5020206;28;20048;-79
2023/03/20 09:55:18;;;;;;;30.75;21.70;;;;;;;;;;4996246;28;20490;-78
2023/03/20 09:57:46;;;;;;;33.38;21.75;;;;;;;;;;5016542;28;20049;-78
2023/03/20 10:00:12;;;;;;;26.75;20.30;;;;;;;;;;5015056;28;20045;-78
2023/03/20 10:02:48;;;;;;;28.17;22.58;;;;;;;;;;5015256;28;20052;-78
2023/03/20 10:05:28;;;;;;;25.25;20.15;;;;;;;;;;5016240;28;20029;-78
2023/03/20 10:07:55;;;;;;;25.25;20.58;;;;;;;;;;5014277;28;20061;-78
2023/03/20 10:10:24;;;;;;;28.65;20.30;;;;;;;;;;5016755;28;20060;-78
2023/03/20 10:13:13;;;;;;;23.98;17.50;;;;;;;;;;5019288;28;20029;-78
2023/03/20 10:15:53;;;;;;;16.83;13.70;;;;;;;;;;5014732;28;20109;-78
2023/03/20 10:18:26;;;;;;;17.65;13.38;;;;;;;;;;5014097;28;20512;-78
2023/03/20 10:20:59;;;;;;;15.07;11.77;;;;;;;;;;4997566;28;20568;-78
2023/03/20 10:23:36;;;;;;;12.02;10.27;;;;;;;;;;5017944;28;20105;-78
2023/03/20 10:26:06;;;;;;;14.57;10.20;;;;;;;;;;4992610;28;20627;-77
2023/03/20 10:28:36;;;;;;;10.27;8.60;;;;;;;;;;5017846;28;20552;-78
2023/03/20 10:31:11;;;;;;;13.55;9.45;;;;;;;;;;5014152;28;20032;-78
2023/03/20 10:33:56;;;;;;;10.40;8.52;;;;;;;;;;5007521;28;20061;-78
2023/03/20 10:36:22;;;;;;;12.27;9.65;;;;;;;;;;5012899;28;20026;-78
2023/03/20 10:39:20;;;;;;;10.48;8.80;;;;;;;;;;5020220;28;20026;-77
2023/03/20 10:41:57;;;;;;;9.25;8.35;;;;;;;;;;4946756;28;20511;-78
2023/03/20 10:44:30;;;;;;;14.45;9.73;;;;;;;;;;4988596;28;20053;-78
2023/03/20 10:46:58;;;;;;;12.88;10.20;;;;;;;;;;4986411;28;20387;-77
2023/03/20 10:49:36;;;;;;;16.83;10.27;;;;;;;;;;4989998;28;20038;-78
2023/03/20 10:52:05;;;;;;;17.05;11.20;;;;;;;;;;4985923;28;20050;-78
2023/03/20 10:54:41;;;;;;;13.82;10.27;;;;;;;;;;4991308;28;20366;-78
2023/03/20 10:57:11;;;;;;;14.07;10.18;;;;;;;;;;4994701;28;20026;-78
2023/03/20 10:59:39;;;;;;;11.20;9.30;;;;;;;;;;4985901;28;20507;-78
2023/03/20 11:02:10;;;;;;;11.50;9.43;;;;;;;;;;4989150;28;20097;-78
2023/03/20 11:04:36;;;;;;;13.52;9.90;;;;;;;;;;4986257;28;20413;-79
2023/03/20 11:07:09;;;;;;;13.75;10.25;;;;;;;;;;4988675;28;20030;-78
2023/03/20 11:09:35;;;;;;;13.13;10.50;;;;;;;;;;4990284;28;20490;-78
2023/03/20 11:12:03;;;;;;;12.90;11.13;;;;;;;;;;4987850;28;20118;-78
2023/03/20 11:14:33;;;;;;;15.45;11.65;;;;;;;;;;4992042;28;20014;-78
2023/03/20 11:17:02;;;;;;;16.15;12.18;;;;;;;;;;4986983;28;20053;-78
2023/03/20 11:19:32;;;;;;;14.00;11.32;;;;;;;;;;4990503;28;20209;-79
2023/03/20 11:22:01;;;;;;;15.45;10.80;;;;;;;;;;4985385;28;20024;-78
2023/03/20 11:24:35;;;;;;;13.68;10.68;;;;;;;;;;4988634;28;20018;-78
2023/03/20 11:27:24;;;;;;;12.63;11.35;;;;;;;;;;4989512;28;20034;-78
2023/03/20 11:29:51;;;;;;;11.48;9.20;;;;;;;;;;4993928;28;20033;-79
2023/03/20 11:32:31;;;;;;;11.25;10.02;;;;;;;;;;4999010;28;20092;-78
2023/03/20 11:35:12;;;;;;;15.52;11.13;;;;;;;;;;4982533;28;20053;-78
2023/03/20 11:37:43;;;;;;;15.50;10.48;;;;;;;;;;4992014;28;20350;-78
2023/03/20 11:40:12;;;;;;;12.20;10.70;;;;;;;;;;4991362;28;20115;-78
2023/03/20 11:42:38;;;;;;;18.80;12.35;;;;;;;;;;5014069;28;20317;-78
2023/03/20 11:45:06;;;;;;;14.15;11.02;;;;;;;;;;5008813;28;20040;-78
2023/03/20 11:47:34;;;;;;;12.05;10.38;;;;;;;;;;4988944;28;20514;-79
2023/03/20 11:50:01;;;;;;;15.02;11.38;;;;;;;;;;5008433;28;20041;-78
2023/03/20 11:52:46;;;;;;;14.50;11.10;;;;;;;;;;5013387;28;20068;-79
2023/03/20 11:55:27;;;;;;;12.60;10.77;;;;;;;;;;5020482;28;20160;-78
2023/03/20 11:57:56;;;;;;;15.60;12.27;;;;;;;;;;5013162;28;20033;-78
2023/03/20 12:00:28;;;;;;;14.75;10.88;;;;;;;;;;5011875;28;20104;-79
2023/03/20 12:02:55;;;;;;;15.80;12.70;;;;;;;;;;5007325;28;20021;-78
2023/03/20 12:05:35;;;;;;;19.20;12.45;;;;;;;;;;5010601;28;20022;-78
2023/03/20 12:08:24;;;;;;;13.65;11.02;;;;;;;;;;5011822;28;20037;-78
2023/03/20 12:10:55;;;;;;;11.90;9.65;;;;;;;;;;5003286;28;20033;-78
2023/03/20 12:13:30;;;;;;;10.32;9.30;;;;;;;;;;5015470;28;20025;-78
2023/03/20 12:16:00;;;;;;;11.32;10.13;;;;;;;;;;5011630;28;20025;-78
2023/03/20 12:18:33;;;;;;;11.82;9.43;;;;;;;;;;5014653;28;20032;-78
2023/03/20 12:21:17;;;;;;;11.55;9.40;;;;;;;;;;5010180;28;20632;-78
2023/03/20 12:23:56;;;;;;;11.18;9.60;;;;;;;;;;5012159;28;20030;-78
2023/03/20 12:26:28;;;;;;;12.40;10.65;;;;;;;;;;5011741;28;20030;-78
2023/03/20 12:29:01;;;;;;;11.85;8.60;;;;;;;;;;5014204;28;20038;-77
2023/03/20 12:31:33;;;;;;;12.15;8.63;;;;;;;;;;5018429;28;20018;-77
2023/03/20 12:34:18;;;;;;;8.57;6.65;;;;;;;;;;4994371;28;20022;-77
2023/03/20 12:36:46;;;;;;;10.23;7.15;;;;;;;;;;5009976;28;20018;-77
2023/03/20 12:39:15;;;;;;;8.80;7.53;;;;;;;;;;5009925;28;20025;-77
2023/03/20 12:42:01;;;;;;;9.05;6.07;;;;;;;;;;5009351;28;20046;-77
2023/03/20 12:44:30;;;;;;;7.82;5.65;;;;;;;;;;4988537;28;20589;-76
2023/03/20 12:47:06;;;;;;;9.23;6.40;;;;;;;;;;5010019;28;20029;-77
2023/03/20 12:49:51;;;;;;;11.40;7.43;;;;;;;;;;5006130;28;20531;-78
2023/03/20 12:52:25;;;;;;;10.90;8.48;;;;;;;;;;5011296;28;20029;-78
2023/03/20 12:55:12;;;;;;;9.25;7.78;;;;;;;;;;5011184;28;20474;-77
2023/03/20 12:57:38;;;;;;;10.60;8.35;;;;;;;;;;5008591;28;20021;-78
2023/03/20 13:00:12;;;;;;;9.80;7.80;;;;;;;;;;4992138;28;20072;-77
2023/03/20 13:02:58;;;;;;;9.50;8.55;;;;;;;;;;5008438;28;20535;-77
2023/03/20 13:05:39;;;;;;;12.70;8.95;;;;;;;;;;4958432;28;20038;-77
2023/03/20 13:08:11;;;;;;;8.90;8.00;;;;;;;;;;5013071;28;20032;-78
2023/03/20 13:10:37;;;;;;;;;;;;;;;;;;5012565;28;20022;-77
2023/03/20 13:13:11;;;;;;;10.25;9.23;;;;;;;;;;5010769;28;20051;-77
2023/03/20 13:15:49;;;;;;;10.80;8.88;;;;;;;;;;5012573;28;20058;-77
2023/03/20 13:18:22;;;;;;;12.30;9.68;;;;;;;;;;5009656;28;20033;-77
2023/03/20 13:20:50;;;;;;;13.30;10.18;;;;;;;;;;4998671;28;20049;-77
2023/03/20 13:23:30;;;;;;;11.45;10.27;;;;;;;;;;5019663;28;20029;-76
2023/03/20 13:25:57;;;;;;;11.05;9.65;;;;;;;;;;5011485;28;20029;-77
2023/03/20 13:28:24;;;;;;;12.70;9.73;;;;;;;;;;5007288;28;20038;-77
2023/03/20 13:30:55;;;;;;;12.55;10.63;;;;;;;;;;5017675;28;20445;-77
2023/03/20 13:33:24;;;;;;;12.88;10.52;;;;;;;;;;5007035;28;20040;-77
2023/03/20 13:36:03;;;;;;;14.02;10.13;;;;;;;;;;5017361;28;20025;-77
2023/03/20 13:38:37;;;;;;;13.30;10.75;;;;;;;;;;5004525;28;20471;-77
2023/03/20 13:41:04;;;;;;;11.38;10.20;;;;;;;;;;4987636;28;20452;-77
2023/03/20 13:43:31;;;;;;;13.15;11.07;;;;;;;;;;4993175;28;20089;-77
2023/03/20 13:46:07;;;;;;;13.88;11.43;;;;;;;;;;4992089;28;20129;-77
2023/03/20 13:48:43;;;;;;;15.55;10.30;;;;;;;;;;4992271;28;20034;-77
2023/03/20 13:51:12;;;;;;;12.52;10.50;;;;;;;;;;4986356;28;20022;-77
2023/03/20 13:53:44;;;;;;;11.63;9.85;;;;;;;;;;4990159;28;20030;-77
2023/03/20 13:56:35;;;;;;;11.13;9.43;;;;;;;;;;4988977;28;20029;-78
2023/03/20 13:59:20;;;;;;;13.38;9.90;;;;;;;;;;4996373;28;20038;-76
2023/03/20 14:01:55;;;;;;;12.10;9.80;;;;;;;;;;4989837;28;20118;-76
2023/03/20 14:04:22;;;;;;;10.45;9.23;;;;;;;;;;4998871;28;20026;-74
2023/03/20 14:06:50;;;;;;;11.70;9.80;;;;;;;;;;4991721;28;20751;-76
2023/03/20 14:09:28;;;;;;;8.95;7.78;;;;;;;;;;4995905;28;20121;-78
2023/03/20 14:11:55;;;;;;;9.85;8.23;;;;;;;;;;4991971;28;20408;-80
2023/03/20 14:14:29;;;;;;;10.18;9.13;;;;;;;;;;5005430;28;20490;-79
2023/03/20 14:17:25;;;;;;;12.57;10.23;;;;;;;;;;5003580;28;20044;-83
2023/03/20 14:19:55;;;;;;;13.20;9.52;;;;;;;;;;4988487;28;20042;-87
2023/03/20 14:22:34;;;;;;;17.63;9.10;;;;;;;;;;4995463;28;20088;-87
2023/03/20 14:25:08;;;;;;;9.93;8.93;;;;;;;;;;4995726;28;20067;-87
2023/03/20 14:27:35;;;;;;;14.05;8.93;;;;;;;;;;4997079;28;20049;-88
2023/03/20 14:30:20;;;;;;;10.30;8.90;;;;;;;;;;4997106;28;20129;-87
2023/03/20 14:32:52;;;;;;;8.95;8.05;;;;;;;;;;4993464;28;20594;-87
2023/03/20 14:35:26;;;;;;;10.48;8.63;;;;;;;;;;4998616;28;20044;-77
2023/03/20 14:37:52;;;;;;;9.85;7.85;;;;;;;;;;4985529;28;20030;-85
2023/03/20 14:40:24;;;;;;;9.68;8.70;;;;;;;;;;5003379;28;20041;-81
2023/03/20 14:42:56;;;;;;;16.98;9.10;;;;;;;;;;4996726;28;20025;-87
2023/03/20 14:45:22;;;;;;;;;;;;;;;;;;4998949;28;20028;-87
2023/03/20 14:48:00;;;;;;;10.95;7.63;;;;;;;;;;5014051;28;19960;-76